Time;durP1;ratioP1;P1;durP2;ratioP2;P2;SDS_P1;SDS_P2;PMS_P1;PMS_P2;Temp;Humidity;BMP_temperature;BMP_pressure;BME280_temperature;BME280_humidity;BME280_pressure;Samples;Min_cycle;Max_cycle;Signal;HPM_P1;HPM_P2
2023/01/11 00:05:47;;;;;;;11.10;6.43;;;;;;;;;;4795255;29;20581;-91
2023/01/11 00:11:46;;;;;;;9.20;5.40;;;;;;;;;;4810090;29;20115;-88
2023/01/11 03:15:56;;;;;;;;;;;;;;;;;;5076429;23;20063;-90
2023/01/11 05:49:03;;;;;;;11.75;7.75;;;;;;;;;;5175659;23;20051;-90
2023/01/11 05:51:52;;;;;;;12.07;6.38;;;;;;;;;;4994359;28;20082;-90
2023/01/11 06:07:37;;;;;;;14.02;8.57;;;;;;;;;;4992754;23;20055;-90
2023/01/11 06:13:59;;;;;;;11.57;7.45;;;;;;;;;;4980558;23;20107;-91
2023/01/11 06:16:50;;;;;;;8.93;5.28;;;;;;;;;;4961106;29;20052;-92
2023/01/11 06:19:38;;;;;;;7.45;4.32;;;;;;;;;;4963193;28;20027;-91
2023/01/11 06:22:24;;;;;;;7.95;4.60;;;;;;;;;;4926004;29;20031;-91
2023/01/11 06:28:18;;;;;;;7.03;4.18;;;;;;;;;;5006418;23;20063;-92
2023/01/11 06:30:55;;;;;;;6.90;4.00;;;;;;;;;;4934752;29;20035;-90
2023/01/11 06:46:06;;;;;;;8.63;5.43;;;;;;;;;;4959025;29;20046;-92
2023/01/11 06:48:56;;;;;;;9.27;5.50;;;;;;;;;;4960102;29;20361;-92
2023/01/11 06:51:23;;;;;;;10.88;5.30;;;;;;;;;;4945554;29;20035;-92
2023/01/11 06:54:11;;;;;;;11.13;7.05;;;;;;;;;;4959072;29;20028;-92
2023/01/11 06:57:17;;;;;;;13.80;8.77;;;;;;;;;;4958268;29;20495;-92
2023/01/11 07:00:27;;;;;;;8.60;5.50;;;;;;;;;;4957580;29;20038;-92
2023/01/11 07:06:04;;;;;;;8.27;4.32;;;;;;;;;;4916060;29;20030;-92
2023/01/11 07:09:09;;;;;;;10.10;5.00;;;;;;;;;;4938462;29;20035;-92
2023/01/11 07:12:20;;;;;;;10.07;5.78;;;;;;;;;;4853412;29;20405;-92
2023/01/11 07:15:13;;;;;;;10.85;6.47;;;;;;;;;;4861628;29;20527;-92
2023/01/11 07:17:59;;;;;;;11.82;6.65;;;;;;;;;;4862030;29;20037;-92
2023/01/11 07:20:29;;;;;;;13.32;7.68;;;;;;;;;;4860954;29;20034;-92
2023/01/11 07:23:40;;;;;;;9.20;5.68;;;;;;;;;;4864956;29;20121;-92
2023/01/11 07:29:32;;;;;;;10.57;6.25;;;;;;;;;;4975508;23;20427;-93
2023/01/11 07:32:09;;;;;;;12.57;7.57;;;;;;;;;;4959941;29;20046;-92
2023/01/11 07:35:06;;;;;;;14.82;8.45;;;;;;;;;;4950285;29;20046;-92
2023/01/11 07:37:37;;;;;;;12.75;7.18;;;;;;;;;;4963869;29;20031;-92
2023/01/11 07:40:20;;;;;;;20.02;8.90;;;;;;;;;;4965080;29;20050;-92
2023/01/11 07:43:10;;;;;;;17.60;11.40;;;;;;;;;;4943278;29;20546;-92
2023/01/11 07:45:42;;;;;;;13.63;8.68;;;;;;;;;;4931786;29;20031;-92
2023/01/11 07:48:25;;;;;;;10.60;6.27;;;;;;;;;;4944833;29;20101;-92
2023/01/11 07:51:19;;;;;;;12.70;8.57;;;;;;;;;;4961283;29;20027;-91
2023/01/11 07:54:02;;;;;;;9.48;5.63;;;;;;;;;;4929994;29;20037;-92
2023/01/11 07:56:37;;;;;;;10.95;7.15;;;;;;;;;;4955987;29;20114;-93
2023/01/11 07:59:37;;;;;;;7.45;5.70;;;;;;;;;;4943165;29;20030;-93
2023/01/11 08:02:42;;;;;;;10.23;7.18;;;;;;;;;;4920263;29;20106;-92
2023/01/11 08:05:29;;;;;;;11.20;6.82;;;;;;;;;;4961309;29;20167;-92
2023/01/11 08:08:06;;;;;;;9.75;6.05;;;;;;;;;;4943343;29;20459;-93
2023/01/11 08:17:03;;;;;;;13.45;7.28;;;;;;;;;;4969495;29;20062;-92
2023/01/11 08:20:20;;;;;;;19.27;10.10;;;;;;;;;;4954181;29;20031;-93
2023/01/11 08:23:31;;;;;;;18.40;10.52;;;;;;;;;;4960600;29;20027;-92
2023/01/11 08:26:34;;;;;;;17.45;11.68;;;;;;;;;;4956396;29;20027;-92
2023/01/11 08:29:00;;;;;;;10.48;7.35;;;;;;;;;;4909915;29;20574;-93
2023/01/11 08:31:51;;;;;;;10.20;5.90;;;;;;;;;;4939980;29;20031;-92
2023/01/11 08:34:39;;;;;;;7.22;4.80;;;;;;;;;;4943883;29;20072;-91
2023/01/11 08:37:27;;;;;;;8.55;5.22;;;;;;;;;;4937878;29;20098;-92
2023/01/11 08:40:09;;;;;;;10.27;6.30;;;;;;;;;;4935675;28;20060;-93
2023/01/11 08:43:18;;;;;;;10.25;6.18;;;;;;;;;;4921650;29;20362;-93
2023/01/11 08:46:19;;;;;;;13.63;7.35;;;;;;;;;;4921915;29;20051;-93
2023/01/11 08:52:24;;;;;;;14.38;9.15;;;;;;;;;;4923851;29;20039;-94
2023/01/11 08:57:59;;;;;;;14.13;7.75;;;;;;;;;;4943890;29;20043;-93
2023/01/11 09:00:34;;;;;;;16.08;7.78;;;;;;;;;;4931889;29;20030;-93
2023/01/11 09:03:04;;;;;;;13.73;6.95;;;;;;;;;;4951467;29;20049;-93
2023/01/11 09:08:55;;;;;;;12.38;6.90;;;;;;;;;;4959607;29;20026;-92
2023/01/11 09:12:06;;;;;;;56.10;28.77;;;;;;;;;;4950967;29;20523;-93
2023/01/11 09:14:59;;;;;;;40.45;19.65;;;;;;;;;;4915307;29;20031;-92
2023/01/11 09:17:26;;;;;;;48.92;25.42;;;;;;;;;;4945549;29;20036;-92
2023/01/11 09:19:54;;;;;;;80.00;38.55;;;;;;;;;;4933620;29;20036;-89
2023/01/11 09:31:22;;;;;;;75.53;35.47;;;;;;;;;;4966482;28;20093;-89
2023/01/11 09:33:49;;;;;;;43.47;23.02;;;;;;;;;;4958909;28;20035;-92
2023/01/11 09:36:30;;;;;;;49.10;24.20;;;;;;;;;;4958714;29;20039;-90
2023/01/11 09:39:10;;;;;;;43.25;21.13;;;;;;;;;;4938974;29;20031;-91
2023/01/11 09:42:06;;;;;;;39.75;20.50;;;;;;;;;;4956950;29;20481;-92
2023/01/11 09:51:07;;;;;;;36.17;18.02;;;;;;;;;;4958436;28;20042;-91
2023/01/11 09:57:32;;;;;;;20.83;12.40;;;;;;;;;;4965632;28;20093;-91
2023/01/11 10:03:23;;;;;;;;;;;;;;;;;;4978264;28;20525;-91
2023/01/11 10:09:43;;;;;;;16.17;9.98;;;;;;;;;;4978660;28;20058;-91
2023/01/11 10:12:31;;;;;;;11.80;6.90;;;;;;;;;;4980140;28;20023;-93
2023/01/11 10:18:22;;;;;;;;;;;;;;;;;;4976605;28;20065;-88
2023/01/11 10:20:53;;;;;;;36.60;18.35;;;;;;;;;;4977251;28;19929;-88
2023/01/11 10:23:27;;;;;;;18.55;11.45;;;;;;;;;;4962855;28;20026;-88
2023/01/11 10:26:15;;;;;;;15.75;8.48;;;;;;;;;;4981208;28;20034;-90
2023/01/11 10:29:02;;;;;;;23.17;14.10;;;;;;;;;;4980351;28;20046;-89
2023/01/11 10:31:43;;;;;;;52.50;23.70;;;;;;;;;;4963515;28;20031;-88
2023/01/11 10:42:53;;;;;;;44.13;20.90;;;;;;;;;;4976219;28;20395;-90
2023/01/11 10:45:50;;;;;;;22.30;13.57;;;;;;;;;;4978803;28;20038;-90
2023/01/11 10:48:23;;;;;;;89.15;37.83;;;;;;;;;;4961755;28;20386;-92
2023/01/11 10:51:08;;;;;;;37.55;18.00;;;;;;;;;;4960603;28;20474;-92
2023/01/11 10:53:52;;;;;;;11.45;6.20;;;;;;;;;;4960427;28;20044;-91
2023/01/11 10:56:58;;;;;;;24.23;14.18;;;;;;;;;;4954341;28;20039;-89
2023/01/11 11:00:15;;;;;;;22.90;14.32;;;;;;;;;;4958265;29;20471;-89
2023/01/11 11:02:50;;;;;;;28.38;16.88;;;;;;;;;;4956806;29;20447;-88
2023/01/11 11:05:38;;;;;;;29.00;17.17;;;;;;;;;;4937866;29;20416;-87
2023/01/11 11:08:16;;;;;;;17.17;10.27;;;;;;;;;;4939473;29;20044;-88
2023/01/11 11:13:53;;;;;;;12.20;6.78;;;;;;;;;;4961745;29;20082;-87
2023/01/11 11:16:32;;;;;;;13.52;8.63;;;;;;;;;;4962166;29;20055;-90
2023/01/11 11:19:21;;;;;;;17.45;9.38;;;;;;;;;;4953571;29;20082;-88
2023/01/11 11:21:51;;;;;;;15.27;9.82;;;;;;;;;;4961464;29;20030;-90
2023/01/11 11:24:23;;;;;;;15.02;10.15;;;;;;;;;;4942961;29;20042;-89
2023/01/11 11:32:41;;;;;;;;;;;;;;;;;;4959336;29;20498;-88
2023/01/11 11:35:28;;;;;;;20.38;10.40;;;;;;;;;;4938599;29;19919;-88
2023/01/11 11:37:54;;;;;;;19.73;12.00;;;;;;;;;;4949086;28;20056;-86
2023/01/11 11:40:29;;;;;;;28.23;16.77;;;;;;;;;;4963819;28;20091;-88
2023/01/11 11:43:09;;;;;;;21.80;12.30;;;;;;;;;;4941535;29;20022;-88
2023/01/11 11:45:35;;;;;;;20.92;11.82;;;;;;;;;;4938482;29;20048;-88
2023/01/11 11:48:04;;;;;;;49.92;31.52;;;;;;;;;;4941479;29;20042;-89
2023/01/11 11:50:30;;;;;;;33.78;21.88;;;;;;;;;;4940700;29;20032;-88
2023/01/11 11:53:23;;;;;;;25.33;15.85;;;;;;;;;;4942945;29;20098;-94
2023/01/11 11:58:43;;;;;;;16.50;9.85;;;;;;;;;;4960178;29;20059;-91
2023/01/11 12:01:45;;;;;;;17.87;12.10;;;;;;;;;;4959220;29;20483;-94
2023/01/11 12:04:34;;;;;;;19.55;11.82;;;;;;;;;;4942111;29;20027;-93
2023/01/11 12:07:06;;;;;;;14.93;10.85;;;;;;;;;;4958417;29;20533;-94
2023/01/11 12:12:40;;;;;;;17.38;11.80;;;;;;;;;;4945030;29;20039;-94
2023/01/11 12:15:27;;;;;;;21.42;14.35;;;;;;;;;;4926407;29;20085;-93
2023/01/11 12:18:18;;;;;;;31.38;19.55;;;;;;;;;;4940027;29;20567;-94
2023/01/11 12:20:52;;;;;;;49.15;28.73;;;;;;;;;;4958636;29;20497;-94
2023/01/11 12:26:44;;;;;;;;;;;;;;;;;;4959954;29;20118;-94
2023/01/11 12:29:55;;;;;;;81.57;39.30;;;;;;;;;;4958871;28;20401;-95
2023/01/11 12:33:05;;;;;;;36.72;21.90;;;;;;;;;;4960270;29;20095;-95
2023/01/11 12:36:00;;;;;;;26.95;17.25;;;;;;;;;;4961492;29;20023;-96
2023/01/11 12:38:59;;;;;;;32.90;19.50;;;;;;;;;;4941486;29;20059;-94
2023/01/11 12:41:51;;;;;;;23.08;13.80;;;;;;;;;;4941956;29;20028;-93
2023/01/11 12:44:42;;;;;;;34.80;18.98;;;;;;;;;;4958688;29;20023;-92
2023/01/11 12:47:30;;;;;;;54.50;29.38;;;;;;;;;;4940929;29;20454;-93
2023/01/11 12:49:59;;;;;;;41.55;20.27;;;;;;;;;;4941412;29;20114;-94
2023/01/11 12:52:26;;;;;;;54.17;31.42;;;;;;;;;;4943031;29;20114;-91
2023/01/11 12:55:09;;;;;;;59.85;37.90;;;;;;;;;;4941870;29;20027;-90
2023/01/11 13:00:42;;;;;;;78.97;51.33;;;;;;;;;;4972117;28;20049;-94
2023/01/11 13:03:32;;;;;;;52.17;34.70;;;;;;;;;;4960929;28;20027;-93
2023/01/11 13:06:17;;;;;;;30.75;21.75;;;;;;;;;;4960383;28;20026;-95
2023/01/11 13:08:53;;;;;;;24.25;16.42;;;;;;;;;;4978431;28;20019;-94
2023/01/11 13:11:35;;;;;;;24.25;17.85;;;;;;;;;;4978153;28;20089;-94
2023/01/11 13:14:20;;;;;;;25.90;21.45;;;;;;;;;;4960903;28;20481;-95
2023/01/11 13:16:57;;;;;;;33.95;24.40;;;;;;;;;;4960233;28;20062;-95
2023/01/11 13:19:28;;;;;;;33.28;21.65;;;;;;;;;;4960360;28;20027;-95
2023/01/11 13:21:55;;;;;;;37.22;24.50;;;;;;;;;;4956581;28;20030;-94
2023/01/11 13:24:30;;;;;;;33.95;21.98;;;;;;;;;;4959699;29;20632;-93
2023/01/11 13:27:01;;;;;;;31.77;22.08;;;;;;;;;;4940837;29;20368;-93
2023/01/11 13:29:42;;;;;;;66.05;39.45;;;;;;;;;;4957502;28;20059;-93
2023/01/11 13:32:13;;;;;;;44.25;27.10;;;;;;;;;;4942000;29;20032;-94
2023/01/11 13:34:52;;;;;;;38.35;24.92;;;;;;;;;;4939490;29;20039;-94
2023/01/11 13:37:22;;;;;;;50.13;30.88;;;;;;;;;;4960358;29;20020;-94
2023/01/11 13:40:10;;;;;;;45.58;27.55;;;;;;;;;;4944739;29;20023;-91
2023/01/11 13:42:48;;;;;;;44.85;27.55;;;;;;;;;;4963689;29;20020;-93
2023/01/11 13:45:42;;;;;;;51.25;29.40;;;;;;;;;;4965453;29;20497;-92
2023/01/11 13:48:22;;;;;;;48.30;33.40;;;;;;;;;;4958975;29;20046;-93
2023/01/11 13:51:13;;;;;;;50.85;31.70;;;;;;;;;;4962581;29;20027;-94
2023/01/11 13:54:08;;;;;;;44.10;27.88;;;;;;;;;;4960217;29;20042;-94
2023/01/11 13:56:53;;;;;;;42.03;24.20;;;;;;;;;;4948679;29;20462;-93
2023/01/11 13:59:39;;;;;;;48.50;26.88;;;;;;;;;;4941357;29;20031;-93
2023/01/11 14:02:15;;;;;;;55.85;35.75;;;;;;;;;;4959695;29;20027;-93
2023/01/11 14:07:59;;;;;;;47.08;29.25;;;;;;;;;;4967592;29;20144;-92
2023/01/11 14:10:25;;;;;;;;;;;;;;;;;;4953128;29;20031;-91
2023/01/11 14:13:00;;;;;;;67.32;28.92;;;;;;;;;;4948199;29;19937;-91
2023/01/11 14:15:35;;;;;;;55.10;32.10;;;;;;;;;;4965657;29;20039;-93
2023/01/11 14:18:04;;;;;;;37.03;22.83;;;;;;;;;;4945248;28;20118;-91
2023/01/11 14:20:41;;;;;;;27.90;17.52;;;;;;;;;;4960218;28;20015;-92
2023/01/11 14:23:14;;;;;;;41.03;28.35;;;;;;;;;;4937351;29;20027;-93
2023/01/11 14:25:53;;;;;;;37.50;25.92;;;;;;;;;;4932305;29;20026;-93
2023/01/11 14:28:45;;;;;;;36.70;24.95;;;;;;;;;;4960791;28;20063;-92
2023/01/11 14:31:43;;;;;;;29.30;21.95;;;;;;;;;;4952443;28;20028;-94
2023/01/11 14:34:36;;;;;;;33.47;21.95;;;;;;;;;;4972815;28;20038;-92
2023/01/11 14:37:11;;;;;;;27.52;21.40;;;;;;;;;;4950567;28;20031;-93
2023/01/11 14:43:03;;;;;;;35.92;25.23;;;;;;;;;;4961735;29;20030;-93
2023/01/11 14:46:11;;;;;;;130.00;81.75;;;;;;;;;;4960984;29;20027;-95
2023/01/11 14:51:43;;;;;;;47.33;35.28;;;;;;;;;;4960939;29;20038;-92
2023/01/11 15:00:24;;;;;;;62.20;39.92;;;;;;;;;;4968071;29;20062;-93
2023/01/11 15:03:11;;;;;;;59.22;40.28;;;;;;;;;;4966336;29;20027;-93
2023/01/11 15:06:00;;;;;;;51.20;34.90;;;;;;;;;;4964582;29;20031;-93
2023/01/11 15:08:53;;;;;;;45.28;34.22;;;;;;;;;;4943419;29;20031;-92
2023/01/11 15:11:25;;;;;;;123.07;90.63;;;;;;;;;;4942948;29;20023;-91
2023/01/11 15:14:08;;;;;;;57.25;44.35;;;;;;;;;;4959103;29;20106;-90
2023/01/11 15:19:34;;;;;;;47.05;32.25;;;;;;;;;;4960135;29;20450;-94
2023/01/11 15:22:02;;;;;;;68.45;45.88;;;;;;;;;;4961367;29;20110;-93
2023/01/11 15:24:30;;;;;;;61.38;44.38;;;;;;;;;;4945209;29;20028;-93
2023/01/11 15:27:00;;;;;;;65.03;42.03;;;;;;;;;;4943553;29;20031;-92
2023/01/11 15:29:31;;;;;;;40.83;30.27;;;;;;;;;;4939976;29;20051;-93
2023/01/11 15:32:03;;;;;;;33.17;27.50;;;;;;;;;;4939366;29;20058;-91
2023/01/11 15:34:29;;;;;;;27.15;20.27;;;;;;;;;;4939530;29;20391;-94
2023/01/11 15:36:58;;;;;;;30.27;21.65;;;;;;;;;;4941856;29;20042;-93
2023/01/11 15:39:45;;;;;;;26.80;18.58;;;;;;;;;;4944358;29;20024;-93
2023/01/11 15:42:14;;;;;;;29.48;22.55;;;;;;;;;;4942317;29;20027;-93
2023/01/11 15:44:40;;;;;;;32.22;24.30;;;;;;;;;;4942622;29;20035;-94
2023/01/11 15:47:06;;;;;;;30.10;22.33;;;;;;;;;;4938471;29;20024;-91
2023/01/11 15:49:36;;;;;;;32.10;22.92;;;;;;;;;;4934379;29;20067;-90
2023/01/11 15:52:21;;;;;;;51.35;33.95;;;;;;;;;;4919103;29;20385;-89
2023/01/11 15:55:07;;;;;;;69.57;42.60;;;;;;;;;;4919443;29;20499;-89
2023/01/11 15:57:54;;;;;;;45.78;29.15;;;;;;;;;;4919088;29;20036;-89
2023/01/11 16:00:42;;;;;;;27.65;19.85;;;;;;;;;;4909574;29;20079;-90
2023/01/11 16:06:36;;;;;;;39.80;25.92;;;;;;;;;;4923037;29;20083;-93
2023/01/11 16:09:47;;;;;;;33.00;20.10;;;;;;;;;;4921813;29;20087;-94
2023/01/11 16:15:39;;;;;;;22.83;16.73;;;;;;;;;;4925697;29;20032;-93
2023/01/11 16:18:51;;;;;;;26.88;17.25;;;;;;;;;;4922570;29;20103;-94
2023/01/11 16:22:04;;;;;;;24.35;17.05;;;;;;;;;;4905075;29;20056;-94
2023/01/11 16:25:17;;;;;;;35.47;23.55;;;;;;;;;;4941334;29;20038;-94
2023/01/11 16:28:08;;;;;;;39.58;25.85;;;;;;;;;;4934458;29;20032;-94
2023/01/11 16:34:25;;;;;;;29.48;20.38;;;;;;;;;;4913548;29;20059;-94
2023/01/11 16:37:30;;;;;;;42.65;27.30;;;;;;;;;;4810199;29;20049;-94
2023/01/11 16:40:20;;;;;;;47.70;29.38;;;;;;;;;;4810595;29;20614;-92
2023/01/11 16:42:52;;;;;;;45.60;32.55;;;;;;;;;;4867449;29;20053;-92
2023/01/11 16:45:20;;;;;;;65.80;40.78;;;;;;;;;;4880532;29;20121;-90
2023/01/11 16:48:20;;;;;;;53.97;34.20;;;;;;;;;;4865263;29;20036;-93
2023/01/11 16:50:56;;;;;;;32.80;20.77;;;;;;;;;;4845396;29;20048;-93
2023/01/11 16:53:24;;;;;;;52.08;31.08;;;;;;;;;;4865677;29;20029;-92
2023/01/11 16:56:06;;;;;;;35.53;20.92;;;;;;;;;;4865587;29;20117;-93
2023/01/11 16:59:02;;;;;;;61.25;37.17;;;;;;;;;;4866123;29;20063;-93
2023/01/11 17:11:17;;;;;;;17.00;11.63;;;;;;;;;;4919895;29;20055;-92
2023/01/11 17:14:37;;;;;;;24.40;18.55;;;;;;;;;;4917004;29;20385;-93
2023/01/11 17:17:46;;;;;;;32.03;18.73;;;;;;;;;;4919095;29;20493;-92
2023/01/11 17:20:34;;;;;;;49.47;30.10;;;;;;;;;;4889301;29;20043;-91
2023/01/11 17:29:42;;;;;;;45.58;30.38;;;;;;;;;;4861553;29;20074;-91
2023/01/11 17:32:14;;;;;;;47.03;32.15;;;;;;;;;;4870008;29;20125;-89
2023/01/11 17:34:41;;;;;;;52.30;35.22;;;;;;;;;;4892394;29;20036;-90
2023/01/11 17:37:09;;;;;;;59.20;40.50;;;;;;;;;;4898556;29;20060;-89
2023/01/11 17:39:37;;;;;;;40.40;27.50;;;;;;;;;;4898738;29;20096;-90
2023/01/11 17:50:29;;;;;;;61.03;38.22;;;;;;;;;;4899920;29;20089;-89
2023/01/11 17:58:45;;;;;;;50.92;32.80;;;;;;;;;;4899553;29;20044;-91
2023/01/11 18:03:57;;;;;;;45.65;27.65;;;;;;;;;;4899606;29;20063;-90
2023/01/11 18:06:26;;;;;;;51.05;31.70;;;;;;;;;;4898178;29;20028;-89
2023/01/11 18:08:53;;;;;;;31.73;19.52;;;;;;;;;;4898534;29;20032;-89
2023/01/11 18:14:24;;;;;;;;;;;;;;;;;;4899829;29;20480;-89
2023/01/11 18:17:01;;;;;;;32.92;22.55;;;;;;;;;;4899112;29;19918;-91
2023/01/11 18:19:37;;;;;;;41.65;26.85;;;;;;;;;;4898076;29;20036;-89
2023/01/11 18:22:22;;;;;;;43.53;30.15;;;;;;;;;;4897765;29;20029;-88
2023/01/11 18:24:52;;;;;;;52.95;35.53;;;;;;;;;;4897470;29;20028;-89
2023/01/11 18:27:29;;;;;;;43.17;32.88;;;;;;;;;;4898367;29;20032;-90
2023/01/11 18:29:56;;;;;;;55.58;40.92;;;;;;;;;;4920032;29;20008;-89
2023/01/11 18:32:22;;;;;;;62.45;40.28;;;;;;;;;;4932442;29;20044;-92
2023/01/11 18:34:50;;;;;;;49.10;30.65;;;;;;;;;;4935097;29;20040;-91
2023/01/11 18:37:16;;;;;;;57.22;37.60;;;;;;;;;;4925832;29;20039;-91
2023/01/11 18:39:43;;;;;;;41.60;29.25;;;;;;;;;;4932329;29;20022;-90
2023/01/11 18:42:14;;;;;;;46.13;34.47;;;;;;;;;;4931735;29;20024;-91
2023/01/11 18:44:41;;;;;;;91.40;67.53;;;;;;;;;;4932313;29;20017;-89
2023/01/11 18:47:28;;;;;;;69.70;52.33;;;;;;;;;;4938168;29;20090;-89
2023/01/11 18:49:55;;;;;;;61.97;46.95;;;;;;;;;;4927199;29;20345;-91
2023/01/11 18:52:23;;;;;;;79.15;56.72;;;;;;;;;;4939754;29;20050;-88
2023/01/11 18:54:50;;;;;;;58.65;41.67;;;;;;;;;;4928340;29;20024;-88
2023/01/11 18:57:16;;;;;;;78.82;60.17;;;;;;;;;;4930225;29;20031;-90
2023/01/11 18:59:42;;;;;;;83.90;64.20;;;;;;;;;;4928808;29;20107;-89
2023/01/11 19:02:27;;;;;;;92.45;58.28;;;;;;;;;;4932913;29;20024;-89
2023/01/11 19:04:56;;;;;;;82.95;50.50;;;;;;;;;;4936512;29;20040;-91
2023/01/11 19:07:22;;;;;;;77.85;48.42;;;;;;;;;;4935183;29;20020;-90
2023/01/11 19:09:49;;;;;;;79.20;49.35;;;;;;;;;;4937786;29;20023;-91
2023/01/11 19:12:15;;;;;;;84.80;54.97;;;;;;;;;;4918555;29;20384;-90
2023/01/11 19:14:41;;;;;;;83.40;52.83;;;;;;;;;;4915992;29;20506;-89
2023/01/11 19:20:12;;;;;;;71.93;49.50;;;;;;;;;;4917251;29;20057;-91
2023/01/11 19:22:39;;;;;;;77.68;52.13;;;;;;;;;;4901037;29;20064;-90
2023/01/11 19:25:08;;;;;;;60.03;41.13;;;;;;;;;;4916328;29;20032;-92
2023/01/11 19:27:34;;;;;;;67.78;41.30;;;;;;;;;;4919023;29;20043;-89
2023/01/11 19:30:01;;;;;;;68.05;45.03;;;;;;;;;;4922822;29;20027;-89
2023/01/11 19:32:27;;;;;;;78.97;50.10;;;;;;;;;;4951288;28;20043;-90
2023/01/11 19:34:56;;;;;;;76.88;48.97;;;;;;;;;;4941670;29;20027;-90
2023/01/11 19:37:23;;;;;;;64.15;42.72;;;;;;;;;;4941807;29;20035;-89
2023/01/11 19:39:49;;;;;;;71.57;45.00;;;;;;;;;;4942293;29;20055;-89
2023/01/11 19:42:15;;;;;;;70.88;46.22;;;;;;;;;;4941470;29;20020;-91
2023/01/11 19:44:42;;;;;;;92.93;59.90;;;;;;;;;;4941971;29;20071;-91
2023/01/11 19:47:10;;;;;;;71.05;45.42;;;;;;;;;;4942088;29;20039;-91
2023/01/11 19:49:37;;;;;;;70.38;45.58;;;;;;;;;;4941920;29;20542;-91
2023/01/11 19:52:10;;;;;;;79.80;52.90;;;;;;;;;;4941184;29;20039;-90
2023/01/11 19:54:36;;;;;;;78.40;51.50;;;;;;;;;;4941726;29;20086;-91
2023/01/11 19:57:03;;;;;;;76.18;52.58;;;;;;;;;;4941788;29;20043;-91
2023/01/11 19:59:29;;;;;;;84.47;54.60;;;;;;;;;;4942539;28;20054;-91
2023/01/11 20:01:55;;;;;;;70.70;43.42;;;;;;;;;;4939597;29;20027;-92
2023/01/11 20:04:22;;;;;;;77.22;50.97;;;;;;;;;;4938374;29;20399;-88
2023/01/11 20:06:50;;;;;;;90.93;58.53;;;;;;;;;;4938106;29;20036;-87
2023/01/11 20:09:26;;;;;;;68.45;42.83;;;;;;;;;;4937998;29;20031;-90
2023/01/11 20:11:54;;;;;;;64.25;39.65;;;;;;;;;;4939212;29;20036;-88
2023/01/11 20:14:20;;;;;;;73.18;44.60;;;;;;;;;;4938186;29;20039;-89
2023/01/11 20:16:47;;;;;;;74.55;48.50;;;;;;;;;;4938052;29;20036;-91
2023/01/11 20:19:13;;;;;;;72.57;44.92;;;;;;;;;;4938360;29;20019;-92
2023/01/11 20:21:39;;;;;;;83.53;51.30;;;;;;;;;;4938358;29;20038;-90
2023/01/11 20:24:05;;;;;;;64.63;43.78;;;;;;;;;;4938727;29;20028;-91
2023/01/11 20:26:32;;;;;;;76.32;49.00;;;;;;;;;;4938502;29;20024;-87
2023/01/11 20:29:00;;;;;;;65.30;42.78;;;;;;;;;;4937737;29;20518;-89
2023/01/11 20:31:27;;;;;;;77.28;49.80;;;;;;;;;;4921973;29;20399;-86
2023/01/11 20:33:54;;;;;;;80.35;49.25;;;;;;;;;;4937725;29;20120;-87
2023/01/11 20:36:20;;;;;;;70.28;46.38;;;;;;;;;;4937579;29;20160;-89
2023/01/11 20:38:46;;;;;;;70.10;45.30;;;;;;;;;;4938205;29;20023;-89
2023/01/11 20:41:45;;;;;;;77.88;50.13;;;;;;;;;;4940521;29;20024;-90
2023/01/11 20:44:00;;;;;;;77.35;49.97;;;;;;;;;;4946979;29;20438;-90
2023/01/11 20:46:27;;;;;;;66.85;44.70;;;;;;;;;;4942064;29;20035;-89
2023/01/11 20:48:53;;;;;;;66.05;42.63;;;;;;;;;;4943611;29;20368;-89
2023/01/11 20:51:19;;;;;;;69.72;47.08;;;;;;;;;;4943496;29;20430;-91
2023/01/11 20:53:46;;;;;;;68.40;47.17;;;;;;;;;;4944018;29;20047;-89
2023/01/11 20:56:12;;;;;;;73.93;49.60;;;;;;;;;;4941822;29;20445;-88
2023/01/11 20:58:39;;;;;;;82.97;53.38;;;;;;;;;;4940305;29;20062;-89
2023/01/11 21:01:05;;;;;;;95.40;59.20;;;;;;;;;;4940837;29;20119;-90
2023/01/11 21:03:32;;;;;;;111.57;69.93;;;;;;;;;;4940713;29;20162;-90
2023/01/11 21:06:01;;;;;;;102.47;64.32;;;;;;;;;;4957515;29;20110;-90
2023/01/11 21:08:27;;;;;;;112.25;69.03;;;;;;;;;;4940570;29;20110;-90
2023/01/11 21:10:53;;;;;;;89.22;56.50;;;;;;;;;;4940584;29;20027;-90
2023/01/11 21:13:20;;;;;;;79.35;49.42;;;;;;;;;;4932087;29;20114;-90
2023/01/11 21:15:46;;;;;;;61.88;42.67;;;;;;;;;;4921381;29;20420;-92
2023/01/11 21:18:16;;;;;;;71.63;43.20;;;;;;;;;;4937977;29;20047;-91
2023/01/11 21:20:47;;;;;;;76.53;47.60;;;;;;;;;;4921666;29;20035;-92
2023/01/11 21:23:15;;;;;;;77.03;49.58;;;;;;;;;;4921309;29;20059;-90
2023/01/11 21:25:41;;;;;;;73.20;44.50;;;;;;;;;;4921040;29;20120;-91
2023/01/11 21:28:18;;;;;;;70.05;44.17;;;;;;;;;;4938402;29;20040;-93
2023/01/11 21:30:51;;;;;;;65.30;40.83;;;;;;;;;;4921135;29;20031;-90
2023/01/11 21:33:21;;;;;;;66.43;42.10;;;;;;;;;;4936902;29;20046;-91
2023/01/11 21:36:22;;;;;;;74.22;46.83;;;;;;;;;;4921754;29;20039;-92
2023/01/11 21:39:03;;;;;;;65.15;39.67;;;;;;;;;;4904743;29;20040;-93
2023/01/11 21:42:00;;;;;;;64.05;38.22;;;;;;;;;;4917984;29;20036;-93
2023/01/11 21:44:32;;;;;;;58.50;39.50;;;;;;;;;;4923124;29;20071;-87
2023/01/11 21:47:02;;;;;;;72.13;45.58;;;;;;;;;;4936839;29;20384;-87
2023/01/11 21:49:29;;;;;;;68.65;45.42;;;;;;;;;;4919555;29;20054;-85
2023/01/11 21:51:55;;;;;;;78.43;47.65;;;;;;;;;;4919738;29;20080;-84
2023/01/11 21:54:21;;;;;;;88.85;51.78;;;;;;;;;;4919523;29;20024;-87
2023/01/11 21:56:47;;;;;;;84.60;51.35;;;;;;;;;;4919930;29;20159;-86
2023/01/11 21:59:14;;;;;;;82.13;49.63;;;;;;;;;;4920042;29;20028;-85
2023/01/11 22:01:41;;;;;;;88.75;53.00;;;;;;;;;;4919763;29;20032;-86
2023/01/11 22:04:08;;;;;;;83.15;51.40;;;;;;;;;;4919933;29;20027;-85
2023/01/11 22:06:38;;;;;;;63.72;41.65;;;;;;;;;;4919714;29;20099;-86
2023/01/11 22:09:05;;;;;;;56.80;34.97;;;;;;;;;;4919569;29;20031;-85
2023/01/11 22:11:32;;;;;;;59.88;39.17;;;;;;;;;;4919825;29;20024;-85
2023/01/11 22:13:58;;;;;;;65.38;43.28;;;;;;;;;;4919707;29;20701;-85
2023/01/11 22:16:25;;;;;;;72.30;43.20;;;;;;;;;;4919819;29;20027;-87
2023/01/11 22:18:51;;;;;;;73.63;46.58;;;;;;;;;;4920631;29;20064;-91
2023/01/11 22:21:18;;;;;;;81.10;47.85;;;;;;;;;;4921011;29;20024;-93
2023/01/11 22:23:45;;;;;;;136.52;84.93;;;;;;;;;;4920017;29;20032;-88
2023/01/11 22:26:12;;;;;;;95.00;58.95;;;;;;;;;;4920228;29;20055;-90
2023/01/11 22:31:24;;;;;;;83.20;48.80;;;;;;;;;;4936819;29;20086;-89
2023/01/11 22:33:51;;;;;;;91.97;55.50;;;;;;;;;;4920242;29;20360;-91
2023/01/11 22:36:17;;;;;;;96.03;61.95;;;;;;;;;;4920136;29;20079;-91
2023/01/11 22:38:43;;;;;;;76.38;49.75;;;;;;;;;;4920305;29;20039;-91
2023/01/11 22:41:10;;;;;;;76.93;49.63;;;;;;;;;;4920411;29;20391;-90
2023/01/11 22:43:36;;;;;;;75.30;46.83;;;;;;;;;;4919747;29;20036;-89
2023/01/11 22:46:03;;;;;;;63.05;40.58;;;;;;;;;;4920001;29;20028;-91
2023/01/11 22:48:30;;;;;;;68.15;41.80;;;;;;;;;;4920016;29;20034;-91
2023/01/11 22:50:56;;;;;;;103.40;62.55;;;;;;;;;;4919792;29;20028;-90
2023/01/11 22:53:22;;;;;;;114.90;76.20;;;;;;;;;;4920182;29;20059;-89
2023/01/11 22:55:48;;;;;;;99.43;65.38;;;128.70;2252.80;;;;;;4920073;29;20024;-91
2023/01/11 22:58:14;;;;;;;80.82;48.50;;;128.40;2252.80;;;;;;4919916;29;20095;-89
2023/01/11 23:00:40;;;;;;;65.22;41.72;;;128.60;2252.80;;;;;;4920236;29;20121;-89
2023/01/11 23:03:06;;;;;;;88.00;53.85;;;128.70;2252.80;;;;;;4923822;29;20122;-91
2023/01/11 23:05:32;;;;;;;79.82;48.63;;;128.60;2252.80;;;;;;4923698;29;20032;-91
2023/01/11 23:07:58;;;;;;;77.38;46.13;;;153.70;2252.80;;;;;;4923822;29;20126;-89
2023/01/11 23:10:23;;;;;;;74.68;45.25;;;128.50;2252.80;;;;;;4923600;29;20031;-90
2023/01/11 23:15:40;;;;;;;74.05;43.45;;;128.70;2252.80;;;;;;4940819;29;20055;-91
2023/01/11 23:18:08;;;;;;;69.60;42.90;;;128.90;2252.80;;;;;;4923298;29;20027;-91
2023/01/11 23:20:34;;;;;;;73.57;45.20;;;153.60;2252.80;;;;;;4923228;29;20024;-90
2023/01/11 23:23:00;;;;;;;90.95;60.20;;;128.90;2227.20;;;;;;4923192;29;20020;-90
2023/01/11 23:25:26;;;;;;;74.15;46.72;;;128.60;2252.80;;;;;;4923437;29;20039;-91
2023/01/11 23:27:52;;;;;;;80.95;49.47;;;128.40;2252.80;;;;;;4924156;29;20385;-90
2023/01/11 23:30:18;;;;;;;77.90;49.65;;;128.30;2252.80;;;;;;4924054;29;20035;-91
2023/01/11 23:32:44;;;;;;;66.82;40.90;;;128.60;2252.80;;;;;;4919787;29;20056;-90
2023/01/11 23:35:10;;;;;;;69.63;41.45;;;128.60;2252.80;;;;;;4919876;29;20028;-90
2023/01/11 23:37:36;;;;;;;73.15;44.10;;;128.40;2252.80;;;;;;4919858;29;20036;-90
2023/01/11 23:40:02;;;;;;;65.00;40.30;;;128.50;2252.80;;;;;;4919922;29;20093;-91
2023/01/11 23:42:28;;;;;;;75.45;48.95;;;128.60;2252.80;;;;;;4920303;29;20032;-89
2023/01/11 23:44:54;;;;;;;88.55;54.97;;;128.70;2252.80;;;;;;4920097;29;20028;-88
2023/01/11 23:47:23;;;;;;;75.75;48.13;;;128.80;2252.80;;;;;;4919790;29;20039;-91
2023/01/11 23:49:52;;;;;;;99.18;61.13;;;128.80;2252.80;;;;;;4919520;29;20102;-90
2023/01/11 23:52:19;;;;;;;112.03;70.07;;;128.70;2252.80;;;;;;4919688;29;20032;-88
2023/01/11 23:54:46;;;;;;;82.72;51.35;;;128.80;2252.80;;;;;;4919536;29;20028;-90